• Join FlightAware (Why Join?)
  • Login
  • US Flag 
01:41AM EDT


 

Airport Tracker/Info


-or-


 

Live Flight TrackerFlight Track Log ✈ SCX106 ✈ 09-May-2013 ✈ KLAS - KMSP

Flight Track Log - Related Links

Times and Time Zones

All times are in EDT time to prevent confusion due to time zone crossing. See the SCX106 flight status page for this flight to view local times or setup timezone preferences in your user account.

Time Position Orientation Groundspeed Altitude Reporting Facility
EDT Latitude Longitude Course Direction KTS MPH feet Rate Location/Type
09:08PM 36.0760 -115.1530 270° West 173 199 2,400  Level FlightAware
09:08PM 36.0760 -115.1770 270° West 173 199 3,500 2,460 Climbing FlightAware
09:09PM 36.0770 -115.2080 272° West 181 208 4,700 2,160 Climbing FlightAware
09:09PM 36.0770 -115.2350 270° West 204 235 5,500 1,800 Climbing FlightAware
09:10PM 36.0830 -115.2730 281° West 237 273 6,400 1,860 Climbing FlightAware
09:10PM 36.0940 -115.2850 319° Northwest 241 277 6,900 2,400 Climbing FlightAware
09:10PM 36.1120 -115.2920 343° North 246 283 7,600 2,700 Climbing FlightAware
09:11PM 36.1320 -115.2960 351° North 248 285 8,500 3,000 Climbing FlightAware
09:11PM 36.1550 -115.2850 21° North 248 285 9,600 3,240 Climbing FlightAware
09:11PM 36.1650 -115.2690 52° Northeast 245 282 10,400 2,040 Climbing FlightAware
09:12PM 36.1860 -115.2170 63° Northeast 284 327 11,500 1,320 Climbing FlightAware
09:13PM 36.1970 -115.1440 79° East 339 390 12,200 1,680 Climbing FlightAware
09:13PM 36.1970 -115.0520 90° East 365 420 13,900 2,520 Climbing FlightAware
09:14PM 36.1980 -114.9680 89° East 371 427 15,800 2,880 Climbing FlightAware
09:15PM 36.1990 -114.8730 89° East 371 427 18,000 2,880 Climbing FlightAware
09:15PM 36.2000 -114.7900 89° East 370 426 19,900 2,520 Climbing FlightAware
09:16PM 36.2000 -114.6900 90° East 380 437 21,600 2,040 Climbing FlightAware
09:17PM 36.1980 -114.6030 92° East 390 449 22,800 1,680 Climbing FlightAware
09:17PM 36.1970 -114.5130 91° East 400 460 23,900 1,680 Climbing FlightAware
09:18PM 36.1960 -114.4130 91° East 406 467 25,200 1,740 Climbing FlightAware
09:19PM 36.1950 -114.3170 91° East 411 473 26,400 1,620 Climbing FlightAware
09:19PM 36.2010 -114.2490 84° East 409 471 27,100 1,440 Climbing FlightAware
09:20PM 36.2290 -114.1620 68° East 414 476 28,100 1,380 Climbing FlightAware
09:21PM 36.2600 -114.0730 67° East 418 481 29,000 1,320 Climbing FlightAware
09:21PM 36.3120 -113.9830 54° Northeast 422 486 30,000 1,500 Climbing FlightAware
09:22PM 36.3560 -113.9060 55° Northeast 416 479 31,200 1,680 Climbing FlightAware
09:23PM 36.4050 -113.8210 54° Northeast 410 472 32,400 1,380 Climbing FlightAware
09:24PM 36.4480 -113.7440 55° Northeast 411 473 33,200 1,080 Climbing FlightAware
09:24PM 36.4930 -113.6660 54° Northeast 413 475 33,900 1,080 Climbing FlightAware
09:25PM 36.5440 -113.5770 54° Northeast 413 475 34,800 960 Climbing FlightAware
09:26PM 36.5870 -113.5000 55° Northeast 416 479 35,300 720 Climbing FlightAware
09:26PM 36.6360 -113.4130 55° Northeast 420 483 35,900 660 Climbing FlightAware
09:27PM 36.6820 -113.3330 54° Northeast 423 487 36,300 480 Climbing FlightAware
09:28PM 36.7270 -113.2530 55° Northeast 428 493 36,600 480 Climbing FlightAware
09:28PM 36.7770 -113.1630 55° Northeast 427 491 37,000 240 Climbing FlightAware
09:29PM 36.8240 -113.0800 55° Northeast 425 489 37,000  Level FlightAware
09:30PM 36.8730 -112.9910 55° Northeast 425 489 37,000  Level FlightAware
09:31PM 36.9180 -112.9110 55° Northeast 424 488 37,000  Level FlightAware
09:31PM 36.9630 -112.8300 55° Northeast 421 484 37,000  Level FlightAware
09:32PM 37.0140 -112.7390 55° Northeast 419 482 37,000  Level FlightAware
09:33PM 37.0580 -112.6590 55° Northeast 418 481 37,000  Level FlightAware
09:33PM 37.1010 -112.5810 55° Northeast 416 479 37,000  Level FlightAware
09:34PM 37.1500 -112.4930 55° Northeast 415 478 37,000  Level FlightAware
09:35PM 37.2060 -112.3920 55° Northeast 414 476 37,000  Level FlightAware
09:36PM 37.2430 -112.3250 55° Northeast 414 476 37,000  Level FlightAware
09:36PM 37.2800 -112.2580 55° Northeast 414 476 37,000  Level FlightAware
09:37PM 37.3180 -112.1910 54° Northeast 414 476 37,000  Level FlightAware
09:38PM 37.3640 -112.1070 55° Northeast 414 476 37,000  Level FlightAware
09:38PM 37.4020 -112.0400 54° Northeast 414 476 37,000  Level FlightAware
09:39PM 37.4390 -111.9730 55° Northeast 414 476 37,000  Level FlightAware
09:40PM 37.4760 -111.9060 55° Northeast 414 476 37,000  Level FlightAware
09:40PM 37.5140 -111.8380 55° Northeast 414 476 37,000  Level FlightAware
09:41PM 37.5510 -111.7710 55° Northeast 414 476 37,000  Level FlightAware
09:42PM 37.5980 -111.6870 55° Northeast 414 476 37,000  Level FlightAware
09:43PM 37.6350 -111.6200 55° Northeast 414 476 37,000  Level FlightAware
09:43PM 37.6820 -111.5350 55° Northeast 414 476 37,000  Level FlightAware
09:44PM 37.7190 -111.4680 55° Northeast 414 476 37,000  Level FlightAware
09:48PM 38.0520 -110.8120 57° Northeast 425 489 37,000  Level FlightAware
09:48PM 38.0950 -110.7300 56° Northeast 427 491 37,000  Level FlightAware
09:53PM 38.3880 -110.1630 56° Northeast 429 494 37,000  Level FlightAware
09:54PM 38.4330 -110.0750 57° Northeast 428 493 37,000  Level FlightAware
09:54PM 38.4820 -109.9780 57° Northeast 429 494 37,000  Level FlightAware
09:55PM 38.5290 -109.8850 57° Northeast 428 493 37,000  Level FlightAware
09:56PM 38.6020 -109.7430 57° Northeast 427 491 37,000  Level FlightAware
09:57PM 38.6620 -109.6240 57° Northeast 426 490 37,000  Level FlightAware
09:58PM 38.7070 -109.5540 51° Northeast 426 490 37,000  Level FlightAware
09:59PM 38.7620 -109.4690 50° Northeast 431 496 37,000  Level FlightAware
09:59PM 38.8200 -109.3790 50° Northeast 432 497 37,000  Level FlightAware
10:00PM 38.8720 -109.3060 48° Northeast 431 496 37,000  Level FlightAware
10:01PM 38.9360 -109.2190 47° Northeast 430 495 37,000  Level FlightAware
10:01PM 38.9930 -109.1510 43° Northeast 428 493 37,000  Level FlightAware
10:02PM 39.0560 -109.0740 43° Northeast 428 493 37,000  Level FlightAware
10:03PM 39.1200 -108.9980 43° Northeast 427 491 37,000  Level FlightAware
10:03PM 39.1720 -108.9340 44° Northeast 426 490 37,000  Level FlightAware
10:04PM 39.2300 -108.8600 45° Northeast 424 488 37,000  Level FlightAware
10:05PM 39.2810 -108.7700 54° Northeast 422 486 37,000  Level FlightAware
10:06PM 39.3200 -108.6850 59° Northeast 420 483 37,000  Level FlightAware
10:06PM 39.3630 -108.5930 59° Northeast 420 483 37,000  Level FlightAware
10:07PM 39.4080 -108.4990 58° Northeast 419 482 37,000  Level FlightAware
10:08PM 39.4480 -108.4130 59° Northeast 423 487 37,000  Level FlightAware
10:08PM 39.4880 -108.3280 59° Northeast 428 493 37,000  Level FlightAware
10:09PM 39.5400 -108.2170 59° Northeast 427 491 37,000  Level FlightAware
10:10PM 39.5790 -108.1330 59° Northeast 431 496 37,000  Level FlightAware
10:10PM 39.6170 -108.0520 59° Northeast 432 497 37,000  Level FlightAware
10:11PM 39.6650 -107.9480 59° Northeast 431 496 37,000  Level FlightAware
10:12PM 39.7080 -107.8540 59° Northeast 433 498 37,000  Level FlightAware
10:13PM 39.7560 -107.7490 59° Northeast 432 497 37,000  Level FlightAware
10:13PM 39.7970 -107.6600 59° Northeast 438 504 37,000  Level FlightAware
10:14PM 39.8390 -107.5690 59° Northeast 437 503 37,000  Level FlightAware
10:14PM 39.8487 -107.5470 60° Northeast 438 504 37,000  Level FlightAware ADS-B
10:15PM 39.8797 -107.4790 59° Northeast 437 503 37,000  Level FlightAware ADS-B
10:15PM 39.9260 -107.3770 59° Northeast 437 503 37,000  Level FlightAware ADS-B
10:16PM 39.9597 -107.3030 59° Northeast 436 502 37,000  Level FlightAware ADS-B
10:17PM 40.0130 -107.1850 59° Northeast 434 499 37,000  Level FlightAware
10:17PM 40.0261 -107.1560 59° Northeast 435 501 37,000  Level FlightAware ADS-B
10:18PM 40.0656 -107.0680 60° Northeast 434 499 37,000  Level FlightAware ADS-B
10:18PM 40.1000 -106.9920 59° Northeast 433 498 37,000  Level FlightAware
10:19PM 40.1216 -106.9440 60° Northeast 433 498 37,000  Level FlightAware ADS-B
10:19PM 40.1586 -106.8610 60° Northeast 435 501 37,000  Level FlightAware ADS-B
10:20PM 40.1996 -106.7690 60° Northeast 434 499 37,000  Level FlightAware ADS-B
10:21PM 40.2420 -106.6740 60° Northeast 436 502 37,000  Level FlightAware ADS-B
10:21PM 40.2796 -106.5890 60° Northeast 437 503 37,000  Level FlightAware ADS-B
10:22PM 40.3101 -106.5190 60° Northeast 439 505 37,000  Level FlightAware ADS-B
10:23PM 40.3670 -106.3900 60° Northeast 440 506 37,000  Level FlightAware
10:23PM 40.3751 -106.3720 59° Northeast 441 507 37,000  Level FlightAware ADS-B
10:23PM 40.4139 -106.2830 60° Northeast 441 507 37,000  Level FlightAware ADS-B
10:24PM 40.4540 -106.1910 60° Northeast 441 507 37,000  Level FlightAware
10:25PM 40.4880 -106.1150 60° Northeast 441 507 37,000  Level FlightAware
10:25PM 40.5156 -106.0510 60° Northeast 441 507 37,000  Level FlightAware ADS-B
10:26PM 40.5537 -105.9630 60° Northeast 442 509 37,000  Level FlightAware ADS-B
10:27PM 40.6200 -105.8090 60° Northeast 444 511 37,000  Level FlightAware
10:28PM 40.6670 -105.7010 60° Northeast 444 511 37,000  Level FlightAware
10:28PM 40.7022 -105.6180 61° Northeast 444 511 37,000  Level FlightAware ADS-B
10:29PM 40.7364 -105.5380 61° Northeast 444 511 37,000  Level FlightAware ADS-B
10:29PM 40.7691 -105.4610 61° Northeast 445 512 37,000  Level FlightAware ADS-B
10:30PM 40.8091 -105.3670 61° Northeast 445 512 37,000  Level FlightAware ADS-B
10:31PM 40.8559 -105.2570 61° Northeast 446 513 37,000  Level FlightAware ADS-B
10:31PM 40.8863 -105.1860 60° Northeast 448 516 37,000  Level FlightAware ADS-B
10:32PM 40.9192 -105.1080 61° Northeast 449 517 37,000  Level FlightAware ADS-B
10:32PM 40.9502 -105.0340 61° Northeast 450 518 37,000  Level FlightAware ADS-B
10:33PM 40.9840 -104.9530 61° Northeast 452 520 37,000  Level FlightAware ADS-B
10:33PM 41.0160 -104.8770 61° Northeast 453 521 37,000  Level FlightAware ADS-B
10:34PM 41.0466 -104.8040 61° Northeast 455 524 37,000  Level FlightAware ADS-B
10:34PM 41.0788 -104.7270 61° Northeast 454 522 37,000  Level FlightAware ADS-B
10:35PM 41.1109 -104.6490 61° Northeast 455 524 37,000  Level FlightAware ADS-B
10:35PM 41.1433 -104.5710 61° Northeast 456 525 37,000  Level FlightAware ADS-B
10:36PM 41.1739 -104.4970 61° Northeast 456 525 37,000  Level FlightAware ADS-B
10:36PM 41.2049 -104.4220 61° Northeast 456 525 37,000  Level FlightAware ADS-B
10:37PM 41.2353 -104.3480 61° Northeast 456 525 37,000  Level FlightAware ADS-B
10:37PM 41.2660 -104.2730 61° Northeast 456 525 37,000  Level FlightAware ADS-B
10:38PM 41.2968 -104.1980 61° Northeast 456 525 37,000  Level FlightAware ADS-B
10:38PM 41.3268 -104.1240 62° Northeast 456 525 37,000  Level FlightAware ADS-B
10:39PM 41.3569 -104.0500 62° Northeast 455 524 37,000  Level FlightAware ADS-B
10:39PM 41.3876 -103.9750 61° Northeast 454 522 37,000  Level FlightAware ADS-B
10:40PM 41.4177 -103.9010 62° Northeast 453 521 37,000  Level FlightAware ADS-B
10:40PM 41.4477 -103.8270 62° Northeast 452 520 37,000  Level FlightAware ADS-B
10:41PM 41.4776 -103.7520 62° Northeast 452 520 37,000  Level FlightAware ADS-B
10:41PM 41.5081 -103.6770 61° Northeast 452 520 37,000  Level FlightAware ADS-B
10:42PM 41.5381 -103.6020 62° Northeast 452 520 37,000  Level FlightAware ADS-B
10:43PM 41.5778 -103.5020 62° Northeast 452 520 37,000  Level FlightAware ADS-B
10:43PM 41.6074 -103.4280 62° Northeast 452 520 37,000  Level FlightAware ADS-B
10:44PM 41.6371 -103.3530 62° Northeast 451 519 37,000  Level FlightAware ADS-B
10:44PM 41.6668 -103.2780 62° Northeast 452 520 37,000  Level FlightAware ADS-B
10:45PM 41.6963 -103.2040 62° Northeast 453 521 37,000  Level FlightAware ADS-B
10:45PM 41.7258 -103.1290 62° Northeast 454 522 37,000  Level FlightAware ADS-B
10:46PM 41.7563 -103.0520 62° Northeast 454 522 37,000  Level FlightAware ADS-B
10:46PM 41.7884 -102.9700 62° Northeast 455 524 37,000  Level FlightAware ADS-B
10:47PM 41.8190 -102.8920 62° Northeast 456 525 37,000  Level FlightAware ADS-B
10:47PM 41.8522 -102.8070 62° Northeast 457 526 37,000  Level FlightAware ADS-B
10:48PM 41.8826 -102.7290 62° Northeast 457 526 37,000  Level FlightAware ADS-B
10:48PM 41.9130 -102.6530 62° Northeast 457 526 37,000  Level FlightAware
10:49PM 41.9329 -102.5990 64° Northeast 458 527 37,000  Level FlightAware ADS-B
10:49PM 41.9624 -102.5230 62° Northeast 459 528 37,000  Level FlightAware ADS-B
10:50PM 41.9989 -102.4280 63° Northeast 459 528 37,000  Level FlightAware ADS-B
10:50PM 42.0285 -102.3520 62° Northeast 461 531 37,000  Level FlightAware ADS-B
10:51PM 42.0595 -102.2710 63° Northeast 462 532 37,000  Level FlightAware ADS-B
10:51PM 42.0909 -102.1880 63° Northeast 464 534 37,000  Level FlightAware ADS-B
10:52PM 42.1215 -102.1080 63° Northeast 464 534 37,000  Level FlightAware ADS-B
10:52PM 42.1508 -102.0310 63° Northeast 466 536 37,000  Level FlightAware ADS-B
10:53PM 42.1792 -101.9564 63° Northeast 465 535 37,000  Level Denver Center
10:54PM 42.2353 -101.8075 63° Northeast 464 534 37,000  Level Denver Center
10:55PM 42.2922 -101.6572 63° Northeast 468 539 37,000  Level Denver Center
10:56PM 42.3578 -101.4819 63° Northeast 468 539 37,000  Level Denver Center
10:57PM 42.4131 -101.3319 63° Northeast 466 536 37,000  Level Denver Center
10:58PM 42.4781 -101.1561 63° Northeast 467 537 37,000  Level Denver Center
10:59PM 42.5328 -101.0064 64° Northeast 464 534 37,000  Level Denver Center
11:00PM 42.5969 -100.8303 64° Northeast 465 535 37,000  Level Denver Center
11:01PM 42.6514 -100.6767 64° Northeast 470 541 37,000  Level Denver Center
11:02PM 42.7072 -100.5264 63° Northeast 467 537 37,000  Level Denver Center
11:03PM 42.7669 -100.3597 64° Northeast 468 539 37,000  Level Denver Center
11:04PM 42.8225 -100.1997 65° Northeast 467 537 37,000  Level Denver Center
11:05PM 42.8800 -100.0392 64° Northeast 469 540 37,000  Level Denver Center
11:06PM 42.9025 -99.9764 64° Northeast 471 542 37,000  Level Minneapolis Center
11:07PM 42.9589 -99.8142 65° Northeast 472 543 37,000  Level Minneapolis Center
11:08PM 43.0158 -99.6531 64° Northeast 472 543 37,000  Level Minneapolis Center
11:09PM 43.0728 -99.4914 64° Northeast 473 544 37,000  Level Minneapolis Center
11:10PM 43.1283 -99.3297 65° Northeast 473 544 37,000  Level Minneapolis Center
11:11PM 43.1728 -99.1981 65° Northeast 477 549 37,000  Level Minneapolis Center
11:12PM 43.2408 -98.9972 65° Northeast 482 555 37,000  Level Minneapolis Center
11:13PM 43.2956 -98.8369 65° Northeast 471 542 37,000  Level Minneapolis Center
11:19PM 43.6410 -97.8000 65° Northeast 474 545 37,000  Level FlightAware
11:20PM 43.6780 -97.6860 66° East 475 547 37,000  Level FlightAware
11:20PM 43.7150 -97.5700 66° East 475 547 37,000  Level FlightAware
11:21PM 43.7480 -97.4700 65° Northeast 476 548 37,000  Level FlightAware
11:22PM 43.7890 -97.3390 67° East 477 549 37,000  Level FlightAware
11:22PM 43.8300 -97.2120 66° East 478 550 37,000  Level FlightAware
11:23PM 43.8640 -97.1040 66° East 479 551 37,000  Level FlightAware
11:24PM 43.9050 -96.9750 66° East 478 550 37,000  Level FlightAware
11:24PM 43.9360 -96.8760 66° East 479 551 37,000  Level FlightAware
11:25PM 43.9720 -96.7630 66° East 479 551 37,000  Level FlightAware
11:26PM 44.0150 -96.6230 67° East 479 551 37,000  Level FlightAware
11:26PM 44.0430 -96.5330 67° East 479 551 37,000  Level FlightAware
11:27PM 44.0840 -96.4010 67° East 478 550 37,000  Level FlightAware
11:28PM 44.1250 -96.2690 67° East 477 549 37,000  Level FlightAware
11:29PM 44.1580 -96.1590 67° East 478 550 37,000 -240 Level FlightAware
11:29PM 44.1980 -96.0300 67° East 474 545 36,700 -1,380 Descending FlightAware
11:30PM 44.2320 -95.9170 67° East 471 542 35,100 -2,340 Descending FlightAware
11:31PM 44.2690 -95.7950 67° East 466 536 33,400 -2,220 Descending FlightAware
11:31PM 44.3010 -95.6870 67° East 458 527 32,000 -2,220 Descending FlightAware
11:32PM 44.3340 -95.5770 67° East 451 519 30,500 -2,220 Descending FlightAware
11:33PM 44.3700 -95.4580 67° East 441 507 28,900 -2,220 Descending FlightAware
11:34PM 44.4020 -95.3510 67° East 432 497 27,400 -2,160 Descending FlightAware
11:34PM 44.4350 -95.2380 68° East 421 484 25,900 -1,500 Descending FlightAware
11:35PM 44.4630 -95.1410 68° East 391 450 25,300 -1,140 Descending FlightAware
11:36PM 44.4860 -95.0470 71° East 377 434 24,400 -1,500 Descending FlightAware
11:36PM 44.5080 -94.9550 71° East 367 422 23,300 -1,740 Descending FlightAware
11:37PM 44.5320 -94.8540 72° East 358 412 22,000 -1,740 Descending FlightAware
11:38PM 44.5520 -94.7690 72° East 353 406 20,900 -1,800 Descending FlightAware
11:38PM 44.5740 -94.6720 72° East 342 394 19,500 -2,400 Descending FlightAware
11:39PM 44.5940 -94.5860 72° East 358 412 17,500 -2,580 Descending FlightAware
11:40PM 44.6170 -94.4850 72° East 352 405 15,900 -2,100 Descending FlightAware
11:41PM 44.6370 -94.3980 72° East 343 395 14,600 -2,040 Descending FlightAware
11:41PM 44.6560 -94.3150 72° East 337 388 13,200 -1,980 Descending FlightAware
11:42PM 44.6770 -94.2240 72° East 329 379 11,800 -1,740 Descending FlightAware
11:43PM 44.6960 -94.1430 72° East 318 366 10,800 -720 Descending FlightAware
11:43PM 44.7160 -94.0540 72° East 318 366 10,800  Level FlightAware
11:44PM 44.7340 -93.9730 73° East 318 366 10,800  Level FlightAware
11:45PM 44.7530 -93.8880 73° East 319 367 10,800  Level FlightAware
11:45PM 44.7710 -93.8080 72° East 319 367 10,800  Level FlightAware
11:46PM 44.7880 -93.7290 73° East 319 367 10,800 -300 Level FlightAware
11:47PM 44.8080 -93.6400 72° East 302 348 10,400 -780 Descending FlightAware
11:47PM 44.8180 -93.5960 72° East 290 334 9,900 -780 Descending FlightAware
11:48PM 44.8290 -93.5440 73° East 263 303 9,700 -660 Descending FlightAware
11:48PM 44.8380 -93.5020 73° East 255 293 9,300 -1,200 Descending FlightAware
11:49PM 44.8480 -93.4570 73° East 251 289 8,600 -1,320 Descending FlightAware
11:49PM 44.8570 -93.4110 75° East 252 290 8,000 -900 Descending FlightAware
11:50PM 44.8440 -93.3720 115° Southeast 259 298 7,800 -480 Descending FlightAware
11:50PM 44.8220 -93.3310 127° Southeast 264 304 7,600 -780 Descending FlightAware
11:51PM 44.8030 -93.2970 128° Southeast 262 302 7,100 -1,320 Descending FlightAware
11:51PM 44.7820 -93.2560 126° Southeast 258 297 6,400 -1,320 Descending FlightAware
11:52PM 44.7600 -93.2160 128° Southeast 251 289 5,800 -1,200 Descending FlightAware
11:52PM 44.7440 -93.1850 126° Southeast 251 289 5,300 -1,380 Descending FlightAware
11:52PM 44.7320 -93.1630 128° Southeast 250 288 4,900 -840 Descending FlightAware
11:53PM 44.7140 -93.1240 123° Southeast 225 259 4,700 -300 Descending FlightAware
11:53PM 44.7130 -93.1150 99° East 216 249 4,700 -480 Level FlightAware
11:53PM 44.7300 -93.0800 56° Northeast 205 236 4,400 -540 Descending FlightAware
11:54PM 44.7420 -93.0750 16° North 202 232 4,300 -600 Descending FlightAware
11:54PM 44.7660 -93.0680 12° North 188 216 4,000 -780 Descending FlightAware
11:54PM 44.7770 -93.0640 14° North 179 206 3,800 -900 Descending FlightAware
11:55PM 44.7930 -93.0590 13° North 172 198 3,500 -900 Descending FlightAware
11:55PM 44.8080 -93.0670 339° North 177 204 3,200 -1,080 Descending FlightAware
11:55PM 44.8250 -93.0920 314° West 183 211 2,600 -1,200 Descending FlightAware
11:56PM 44.8390 -93.1210 304° West 176 203 2,000 -1,140 Descending FlightAware
11:56PM 44.8490 -93.1460 299° West 159 183 1,600 -900 Descending FlightAware
11:57PM 44.8610 -93.1720 303° West 159 183 1,200 -840 Descending FlightAware
11:57PM 44.8720 -93.1980 301° West 150 173 800 -840 Descending FlightAware